• °C
  • Pobieranie danych...
wx

PRINT OUT SECTION, show »

METAR EPCE 271400Z 00000KT 9999 SCT007 BKN046 02/01
Q0995 RMK 017 092 7/4=

METAR EPDA 271400Z 14004KT 060V210 9999 BKN047 04/01
Q0995 RMK 035 084 7/7=

METAR EPDE 271400Z 23006KT 9999 OVC020 02/M01 Q0997 RMK 022 080 8/8=

METAR EPIR 271400Z AUTO 19002KT VV011 02/01 Q0995 RMK 020 090 ///=

METAR EPKS 271400Z 12008KT 1500 BR OVC004 01/M00 Q0995 RMK 006 095
8/8=

METAR EPLK 271400Z 18004KT 6000 OVC005 00/00 Q0996 RMK 001 100 8/8=

METAR EPLY 271400Z 24004KT 4000 BR OVC004 00/M01 Q0996 RMK 003 095
8/8=

METAR EPMB 271400Z 28005KT 9999 FEW007 OVC041 03/02 Q0995 RMK 030 096
8/2=

METAR EPMI 271400Z 11007KT 9999 SCT090 01/M01 Q0994 RMK 010 085 4/4=

METAR EPMM 271400Z 26009KT 230V300 9999 OVC009 01/01 Q0995 RMK 011
100 8/8=

METAR EPNA 271400Z NIL=

METAR EPOK 271400Z 29006KT 5000 -RA BR FEW004 BKN016 OVC025 02/01
Q0995 RMK 020 096 8/1 =

METAR EPPR 271400Z 28004KT 6000 SCT017 BKN065 02/01 Q0995 RMK 023 093
6/3=

METAR EPPW 271400Z VRB02KT 3000 BR BKN003 OVC005 01/01 Q0995 RMK
006 100 8/5=

METAR EPRA 271400Z 26004KT 9999 BKN017 02/M01 Q0997 RMK 020 080 6/6=

METAR EPSN 271400Z 13008KT 9999 FEW020 SCT100 00/M01 Q0994 RMK 002
089 4/2=

METAR EPTM 271400Z VRB02KT 7000 BKN006 01/M00 Q0996 RMK 007 093 7/7=
 METAR EPRA
Lokalizacja:EPRA Radom Sadków
Czas:14:00 UTC
Średni kierunek wiatru:260 °
Średnia prędkość wiatru:4 węzłów
Widzialność:10 km i więcej
Pierwsza warstwa chmur:5/8 do 7/8, wysokość podstawy 1700 FT
Temperatura powietrza:2 °C
Temperatura punktu rosy:-1 °C
Ciśnienie QNH:997 hPa
Dokładna temperatura powietrza:2,0 °C
Dokładna wilgotność względna:80 %
Zachmurzenie przez wszystkie piętra chmur:6/8
Zachmurzenie przez chmury niskie:6/8



IMGW-PIB Sites